Time;durP1;ratioP1;P1;durP2;ratioP2;P2;SDS_P1;SDS_P2;PMS_P1;PMS_P2;Temp;Humidity;BMP_temperature;BMP_pressure;BME280_temperature;BME280_humidity;BME280_pressure;Samples;Min_cycle;Max_cycle;Signal;HPM_P1;HPM_P2
2021/12/26 00:01:21;;;;;;;5.72;2.40;;;;;;;-3.05;71.45;100942.56;5087625;28;20501;-76
2021/12/26 00:03:47;;;;;;;3.70;1.90;;;;;;;-3.08;71.27;100945.81;5098297;28;20098;-75
2021/12/26 00:06:19;;;;;;;4.05;2.10;;;;;;;-3.19;72.50;100949.25;5078986;28;20028;-75
2021/12/26 00:08:46;;;;;;;4.32;2.03;;;;;;;-3.27;71.15;100943.56;5078278;28;20032;-75
2021/12/26 00:11:11;;;;;;;3.60;2.10;;;;;;;-3.29;71.36;100949.38;5106249;28;20123;-75
2021/12/26 00:13:38;;;;;;;6.25;2.28;;;;;;;-3.37;72.88;100950.50;5081162;28;20059;-75
2021/12/26 00:16:06;;;;;;;5.22;1.95;;;;;;;-3.40;73.43;100957.19;5093952;28;20036;-75
2021/12/26 00:18:31;;;;;;;3.92;2.05;;;;;;;-3.46;74.17;100966.13;5096698;28;20038;-75
2021/12/26 00:20:57;;;;;;;5.50;2.70;;;;;;;-3.48;74.63;100967.72;5101436;28;20020;-74
2021/12/26 00:23:23;;;;;;;3.28;2.10;;;;;;;-3.50;75.05;100975.31;5089137;28;20027;-75
2021/12/26 00:25:49;;;;;;;6.68;2.42;;;;;;;-3.53;74.88;100971.59;5096438;28;20428;-75
2021/12/26 00:28:15;;;;;;;4.68;2.42;;;;;;;-3.53;74.94;100976.75;5078506;28;20036;-74
2021/12/26 00:30:42;;;;;;;7.15;2.47;;;;;;;-3.53;75.39;100971.59;5109286;28;20042;-74
2021/12/26 00:33:09;;;;;;;3.33;1.92;;;;;;;-3.61;75.72;100971.00;5111903;28;20046;-74
2021/12/26 00:35:34;;;;;;;3.45;1.92;;;;;;;-3.59;76.01;100977.19;5081322;28;20027;-75
2021/12/26 00:38:00;;;;;;;4.93;2.15;;;;;;;-3.64;76.30;100975.94;5114787;28;20027;-74
2021/12/26 00:40:26;;;;;;;6.75;2.17;;;;;;;-3.69;76.88;100973.03;5084372;28;20054;-74
2021/12/26 00:42:54;;;;;;;3.85;2.30;;;;;;;-3.71;78.07;100965.97;5065493;28;20024;-74
2021/12/26 00:45:20;;;;;;;3.58;2.10;;;;;;;-3.72;76.63;100967.63;5070672;28;20101;-74
2021/12/26 00:47:47;;;;;;;3.17;2.28;;;;;;;-3.72;76.93;100962.50;5054408;28;20473;-73
2021/12/26 00:50:17;;;;;;;5.90;2.55;;;;;;;-3.73;76.66;100959.03;5061267;28;20021;-73
2021/12/26 00:52:42;;;;;;;4.18;2.30;;;;;;;-3.72;77.22;100965.06;5074599;28;20097;-73
2021/12/26 00:55:11;;;;;;;3.45;2.22;;;;;;;-3.71;77.01;100964.28;5064195;28;20029;-73
2021/12/26 00:57:37;;;;;;;5.15;2.40;;;;;;;-3.71;78.09;100964.28;5069497;28;20157;-73
2021/12/26 01:00:17;;;;;;;8.35;2.60;;;;;;;-3.71;77.78;100963.41;5052841;28;20366;-72
2021/12/26 01:02:44;;;;;;;5.25;2.28;;;;;;;-3.71;77.93;100958.25;5052899;28;20063;-73
2021/12/26 01:05:11;;;;;;;7.13;2.58;;;;;;;-3.75;77.65;100964.84;5064573;28;20032;-73
2021/12/26 01:07:57;;;;;;;2.80;1.90;;;;;;;-3.77;77.60;100963.81;5066626;28;20104;-73
2021/12/26 01:10:25;;;;;;;11.63;2.63;;;;;;;-3.76;78.09;100961.38;5053847;28;20391;-74
2021/12/26 01:12:52;;;;;;;2.63;1.80;;;;;;;-3.79;77.48;100955.97;5059390;28;20037;-72
2021/12/26 01:15:19;;;;;;;3.80;2.13;;;;;;;-3.77;78.35;100957.00;5064101;28;20021;-73
2021/12/26 01:17:46;;;;;;;4.40;2.40;;;;;;;-3.82;78.17;100960.91;5061543;28;20028;-73
2021/12/26 01:20:29;;;;;;;3.72;2.63;;;;;;;-3.83;77.87;100955.66;5061547;28;20048;-73
2021/12/26 01:22:55;;;;;;;4.18;2.05;;;;;;;-3.83;78.21;100971.97;5053561;28;20567;-73
2021/12/26 01:25:20;;;;;;;3.17;2.17;;;;;;;-3.82;78.83;100965.16;5063092;28;20032;-73
2021/12/26 01:27:46;;;;;;;9.75;2.35;;;;;;;-3.83;79.10;100961.69;5061228;28;20087;-73
2021/12/26 01:30:12;;;;;;;5.13;2.40;;;;;;;-3.83;78.80;100959.09;5067791;28;20082;-73
2021/12/26 01:32:37;;;;;;;3.05;1.92;;;;;;;-3.84;79.22;100956.41;5073700;28;20035;-72
2021/12/26 01:35:03;;;;;;;4.35;2.20;;;;;;;-3.89;79.19;100958.66;5070837;28;20472;-72
2021/12/26 01:37:28;;;;;;;4.93;2.08;;;;;;;-3.88;79.52;100954.41;5063005;28;20029;-72
2021/12/26 01:39:54;;;;;;;2.88;2.00;;;;;;;-3.93;79.64;100952.38;5073991;28;20061;-72
2021/12/26 01:42:19;;;;;;;4.15;2.70;;;;;;;-3.96;79.28;100941.88;5110874;28;20031;-72
2021/12/26 01:44:45;;;;;;;6.40;2.17;;;;;;;-4.00;79.20;100949.22;5081469;28;20487;-71
2021/12/26 01:47:11;;;;;;;5.68;2.53;;;;;;;-4.03;79.71;100948.97;5093488;28;20028;-72
2021/12/26 01:49:37;;;;;;;3.65;1.90;;;;;;;-4.04;80.11;100947.19;5080545;28;20026;-72
2021/12/26 01:52:06;;;;;;;6.03;2.17;;;;;;;-4.04;79.97;100947.19;5075678;28;20482;-72
2021/12/26 01:54:40;;;;;;;5.10;2.60;;;;;;;-4.03;79.62;100938.69;5112364;28;20487;-72
2021/12/26 01:57:09;;;;;;;3.40;1.98;;;;;;;-4.02;79.60;100940.50;5109682;28;20057;-71
2021/12/26 01:59:36;;;;;;;4.53;2.20;;;;;;;-4.07;79.67;100938.47;5075152;28;20028;-71
2021/12/26 02:02:02;;;;;;;3.70;1.90;;;;;;;-4.03;79.98;100938.69;5094602;28;20028;-72
2021/12/26 02:04:28;;;;;;;9.43;2.03;;;;;;;-4.03;80.12;100934.44;5094529;28;20047;-72
2021/12/26 02:06:59;;;;;;;2.05;1.52;;;;;;;-4.08;79.63;100936.69;5097492;28;20083;-71
2021/12/26 02:09:25;;;;;;;5.68;2.28;;;;;;;-4.07;79.38;100933.34;5103902;28;20027;-72
2021/12/26 02:11:51;;;;;;;3.60;2.15;;;;;;;-4.10;78.84;100938.22;5113538;28;20037;-72
2021/12/26 02:14:17;;;;;;;4.20;2.10;;;;;;;-4.12;79.34;100932.09;5085704;28;20502;-71
2021/12/26 02:16:42;;;;;;;5.88;2.47;;;;;;;-4.10;78.91;100921.91;5099643;28;20032;-71
2021/12/26 02:19:08;;;;;;;4.07;1.95;;;;;;;-4.09;79.20;100924.59;5111471;28;20031;-72
2021/12/26 02:24:25;;;;;;;3.67;2.25;;;;;;;-4.14;78.96;100923.34;5104763;28;20097;-71
2021/12/26 02:29:39;;;;;;;5.28;2.50;;;;;;;-4.18;78.43;100918.75;5093366;28;20108;-72
2021/12/26 02:32:05;;;;;;;3.88;2.33;;;;;;;-4.15;78.75;100924.16;5075141;28;20036;-70
2021/12/26 02:34:30;;;;;;;4.53;2.33;;;;;;;-4.20;77.73;100922.91;5088870;28;20024;-71
2021/12/26 02:36:56;;;;;;;4.10;2.25;;;;;;;-4.19;78.19;100911.84;5104211;28;20111;-70
2021/12/26 02:39:21;;;;;;;2.35;1.80;;;;;;;-4.19;78.66;100905.78;5093424;28;20039;-71
2021/12/26 02:41:47;;;;;;;5.38;2.10;;;;;;;-4.18;78.44;100910.16;5097108;28;20036;-70
2021/12/26 02:44:13;;;;;;;7.20;2.35;;;;;;;-4.23;77.30;100914.97;5110543;28;20023;-70
2021/12/26 02:46:40;;;;;;;5.43;2.55;;;;;;;-4.25;77.66;100901.97;5094314;28;20087;-71
2021/12/26 02:49:07;;;;;;;3.15;1.95;;;;;;;-4.26;78.38;100907.00;5104716;28;20069;-70
2021/12/26 02:51:32;;;;;;;8.27;2.38;;;;;;;-4.27;79.64;100907.78;5112074;28;20386;-71
2021/12/26 02:53:58;;;;;;;2.67;1.58;;;;;;;-4.27;78.78;100908.69;5113415;28;20028;-70
2021/12/26 02:56:24;;;;;;;4.93;2.13;;;;;;;-4.27;78.14;100907.78;5117404;28;20042;-70
2021/12/26 02:58:49;;;;;;;4.03;1.73;;;;;;;-4.26;77.63;100902.78;5098786;28;20031;-69
2021/12/26 03:01:19;;;;;;;4.20;2.10;;;;;;;-4.25;78.23;100894.25;5114661;28;20447;-69
2021/12/26 03:03:45;;;;;;;10.02;2.25;;;;;;;-4.27;77.28;100890.69;5101633;28;20042;-72
2021/12/26 03:06:21;;;;;;;4.10;2.13;;;;;;;-4.23;77.96;100889.28;5084945;28;20416;-70
2021/12/26 03:08:48;;;;;;;2.42;1.98;;;;;;;-4.21;77.61;100887.69;5111542;28;20420;-69
2021/12/26 03:11:14;;;;;;;3.05;1.63;;;;;;;-4.25;76.76;100877.97;5101815;28;20032;-70
2021/12/26 03:13:46;;;;;;;2.80;2.13;;;;;;;-4.28;76.93;100870.91;5114725;28;20024;-70
2021/12/26 03:16:12;;;;;;;3.35;2.08;;;;;;;-4.33;76.20;100866.22;5114869;28;20518;-70
2021/12/26 03:18:38;;;;;;;4.38;2.20;;;;;;;-4.30;76.91;100866.44;5102188;28;20058;-71
2021/12/26 03:21:04;;;;;;;3.42;2.03;;;;;;;-4.31;77.06;100862.09;5114100;28;20467;-70
2021/12/26 03:23:29;;;;;;;4.03;2.10;;;;;;;-4.30;76.74;100858.72;5115088;28;20030;-70
2021/12/26 03:25:57;;;;;;;3.90;2.10;;;;;;;-4.31;77.30;100855.28;5116203;28;20391;-70
2021/12/26 03:28:23;;;;;;;6.03;1.90;;;;;;;-4.28;78.14;100862.31;5102283;28;20424;-70
2021/12/26 03:30:50;;;;;;;3.80;2.20;;;;;;;-4.29;78.69;100860.53;5102970;28;20063;-69
2021/12/26 03:33:17;;;;;;;5.75;2.40;;;;;;;-4.33;78.37;100867.09;5079404;28;20024;-69
2021/12/26 03:35:42;;;;;;;2.72;1.90;;;;;;;-4.31;78.89;100869.81;5097411;28;20380;-69
2021/12/26 03:38:10;;;;;;;3.15;1.80;;;;;;;-4.33;78.40;100873.91;5115683;28;20039;-70
2021/12/26 03:40:37;;;;;;;3.95;2.22;;;;;;;-4.33;78.80;100873.91;5095478;28;20043;-70
2021/12/26 03:43:03;;;;;;;4.20;2.00;;;;;;;-4.37;78.10;100877.91;5097339;28;20047;-69
2021/12/26 03:45:29;;;;;;;4.30;1.90;;;;;;;-4.35;78.59;100873.81;5111716;28;20020;-70
2021/12/26 03:47:55;;;;;;;4.85;1.70;;;;;;;-4.32;78.31;100873.16;5114363;28;20118;-70
2021/12/26 03:50:24;;;;;;;4.95;2.30;;;;;;;-4.35;78.83;100872.88;5116080;28;20062;-69
2021/12/26 03:52:50;;;;;;;2.95;1.80;;;;;;;-4.35;78.53;100878.94;5114586;28;20035;-69
2021/12/26 03:55:19;;;;;;;3.25;1.90;;;;;;;-4.34;78.65;100866.97;5114958;28;20102;-72
2021/12/26 03:57:45;;;;;;;2.88;1.80;;;;;;;-4.32;78.64;100868.00;5096024;28;20042;-69
2021/12/26 04:00:14;;;;;;;3.15;1.88;;;;;;;-4.32;77.52;100855.16;5107051;28;20030;-70
2021/12/26 04:02:43;;;;;;;5.60;1.92;;;;;;;-4.32;76.78;100850.03;5096480;28;20026;-70
2021/12/26 04:05:10;;;;;;;3.28;1.73;;;;;;;-4.27;77.48;100856.41;5097305;28;20023;-69
2021/12/26 04:07:35;;;;;;;2.80;1.73;;;;;;;-4.24;77.19;100861.78;5102779;28;20131;-68
2021/12/26 04:10:01;;;;;;;4.03;1.90;;;;;;;-4.21;76.94;100861.13;5092051;28;20134;-69
2021/12/26 04:12:34;;;;;;;3.08;1.52;;;;;;;-4.19;77.01;100860.47;5092572;28;20066;-68
2021/12/26 04:15:00;;;;;;;3.53;2.10;;;;;;;-4.19;76.97;100855.31;5096390;28;20031;-69
2021/12/26 04:17:26;;;;;;;2.70;1.70;;;;;;;-4.20;76.05;100853.53;5113774;28;20153;-69
2021/12/26 04:19:51;;;;;;;3.47;2.13;;;;;;;-4.19;75.54;100850.19;5106612;28;20080;-70
2021/12/26 04:22:17;;;;;;;5.15;2.20;;;;;;;-4.17;76.39;100861.44;5096257;28;20027;-69
2021/12/26 04:24:43;;;;;;;3.38;2.00;;;;;;;-4.16;75.97;100850.41;5095033;28;20040;-68
2021/12/26 04:27:08;;;;;;;3.78;1.98;;;;;;;-4.16;76.19;100854.66;5086603;28;20066;-69
2021/12/26 04:29:38;;;;;;;5.38;1.95;;;;;;;-4.16;76.38;100852.09;5110494;28;20111;-69
2021/12/26 04:32:04;;;;;;;3.35;1.73;;;;;;;-4.19;75.19;100845.03;5108231;28;20031;-69
2021/12/26 04:34:30;;;;;;;1.92;1.45;;;;;;;-4.19;76.18;100844.13;5076042;28;20055;-69
2021/12/26 04:36:55;;;;;;;3.47;2.25;;;;;;;-4.23;75.29;100837.88;5102993;28;20077;-68
2021/12/26 04:39:21;;;;;;;3.22;1.70;;;;;;;-4.23;75.20;100837.88;5113493;28;20046;-69
2021/12/26 04:41:46;;;;;;;5.80;2.00;;;;;;;-4.22;75.59;100829.38;5114785;28;20483;-69
2021/12/26 04:44:13;;;;;;;5.50;2.00;;;;;;;-4.21;75.51;100835.44;5113558;28;20027;-68
2021/12/26 04:46:40;;;;;;;3.55;2.00;;;;;;;-4.24;75.88;100836.97;5108985;28;20028;-68
2021/12/26 04:49:07;;;;;;;4.57;2.20;;;;;;;-4.25;75.40;100840.31;5113791;28;20075;-67
2021/12/26 04:51:32;;;;;;;4.15;1.80;;;;;;;-4.30;74.97;100830.47;5110230;28;20062;-69
2021/12/26 04:53:58;;;;;;;3.03;1.92;;;;;;;-4.27;76.17;100838.44;5099349;28;20518;-69
2021/12/26 04:56:23;;;;;;;5.78;1.90;;;;;;;-4.29;76.14;100838.28;5114458;28;20027;-70
2021/12/26 04:58:49;;;;;;;2.88;1.73;;;;;;;-4.28;76.58;100831.50;5111840;28;20102;-69
2021/12/26 05:01:14;;;;;;;4.28;2.20;;;;;;;-4.30;76.69;100835.59;5113981;28;20161;-69
2021/12/26 05:03:41;;;;;;;5.15;2.08;;;;;;;-4.27;76.92;100830.72;5101398;28;20120;-69
2021/12/26 05:06:06;;;;;;;2.30;1.67;;;;;;;-4.31;77.16;100831.28;5077342;28;20131;-69
2021/12/26 05:08:32;;;;;;;5.00;1.70;;;;;;;-4.30;76.94;100833.97;5107754;28;20118;-68
2021/12/26 05:10:57;;;;;;;3.10;2.10;;;;;;;-4.31;76.62;100828.72;5097374;28;20039;-69
2021/12/26 05:13:23;;;;;;;4.65;1.75;;;;;;;-4.32;76.47;100827.78;5094666;28;20036;-69
2021/12/26 05:15:48;;;;;;;3.08;1.90;;;;;;;-4.35;76.41;100826.66;5113659;28;20036;-69
2021/12/26 05:18:14;;;;;;;2.50;1.88;;;;;;;-4.35;76.51;100824.09;5085186;28;20039;-69
2021/12/26 05:20:39;;;;;;;4.35;2.25;;;;;;;-4.34;76.84;100831.00;5109422;28;20026;-69
2021/12/26 05:23:05;;;;;;;4.13;1.88;;;;;;;-4.37;76.34;100828.22;5112999;28;20076;-69
2021/12/26 05:25:31;;;;;;;4.18;2.13;;;;;;;-4.38;75.66;100841.84;5110217;28;20122;-69
2021/12/26 05:27:56;;;;;;;5.50;2.08;;;;;;;-4.40;76.13;100834.91;5093869;28;20031;-69
2021/12/26 05:30:24;;;;;;;2.35;1.70;;;;;;;-4.36;75.93;100830.03;5101125;28;20430;-67
2021/12/26 05:32:50;;;;;;;4.18;2.17;;;;;;;-4.37;76.36;100825.66;5096211;28;20027;-69
2021/12/26 05:35:17;;;;;;;3.28;2.00;;;;;;;-4.40;76.48;100814.34;5097193;28;20028;-68
2021/12/26 05:37:43;;;;;;;3.75;1.70;;;;;;;-4.41;76.53;100822.88;5107481;28;20032;-68
2021/12/26 05:40:11;;;;;;;2.55;1.70;;;;;;;-4.43;77.12;100819.28;5113655;28;20529;-68
2021/12/26 05:42:40;;;;;;;3.72;2.28;;;;;;;-4.45;76.75;100825.97;5091384;28;20027;-68
2021/12/26 05:45:08;;;;;;;3.67;1.95;;;;;;;-4.46;77.52;100813.91;5112666;28;20035;-68
2021/12/26 05:47:34;;;;;;;3.75;2.10;;;;;;;-4.46;77.59;100803.63;5112027;28;20031;-69
2021/12/26 05:50:01;;;;;;;3.88;1.67;;;;;;;-4.47;76.69;100799.28;5111498;28;20036;-67
2021/12/26 05:52:27;;;;;;;2.17;1.70;;;;;;;-4.48;77.39;100800.03;5105903;28;20019;-68
2021/12/26 05:54:53;;;;;;;4.15;2.05;;;;;;;-4.51;77.28;100797.25;5077017;28;20483;-68
2021/12/26 05:57:19;;;;;;;4.78;2.47;;;;;;;-4.52;77.15;100797.13;5101418;28;20048;-68
2021/12/26 05:59:44;;;;;;;4.25;2.05;;;;;;;-4.53;79.15;100803.97;5107741;28;20400;-68
2021/12/26 06:02:12;;;;;;;3.05;2.08;;;;;;;-4.53;78.56;100805.59;5110551;28;20035;-68
2021/12/26 06:04:39;;;;;;;2.45;1.75;;;;;;;-4.55;78.65;100808.06;5104958;28;20105;-68
2021/12/26 06:07:05;;;;;;;4.38;2.08;;;;;;;-4.55;79.03;100792.66;5097774;28;20434;-68
2021/12/26 06:09:31;;;;;;;2.72;1.90;;;;;;;-4.55;80.25;100802.06;5097689;28;20056;-68
2021/12/26 06:11:56;;;;;;;5.40;2.17;;;;;;;-4.55;80.05;100804.63;5107942;28;20454;-68
2021/12/26 06:14:22;;;;;;;3.20;1.90;;;;;;;-4.57;80.91;100809.63;5107863;28;20036;-68
2021/12/26 06:16:48;;;;;;;3.47;2.13;;;;;;;-4.58;81.30;100812.97;5091794;28;20039;-68
2021/12/26 06:19:14;;;;;;;4.43;2.25;;;;;;;-4.63;80.91;100814.28;5090139;28;20027;-68
2021/12/26 06:21:39;;;;;;;3.83;2.05;;;;;;;-4.68;81.56;100815.59;5101119;28;20028;-68
2021/12/26 06:24:05;;;;;;;5.00;2.10;;;;;;;-4.66;81.92;100819.19;5078854;28;20117;-68
2021/12/26 06:26:32;;;;;;;4.45;2.08;;;;;;;-4.67;82.06;100813.16;5104816;28;20034;-69
2021/12/26 06:28:58;;;;;;;4.55;2.15;;;;;;;-4.66;82.89;100814.06;5109195;28;20110;-69
2021/12/26 06:31:23;;;;;;;7.80;2.58;;;;;;;-4.68;82.99;100813.94;5109057;28;20080;-69
2021/12/26 06:33:49;;;;;;;4.45;2.60;;;;;;;-4.70;82.47;100806.91;5115355;28;20436;-68
2021/12/26 06:36:15;;;;;;;4.10;2.08;;;;;;;-4.69;82.57;100803.53;5110903;28;20090;-68
2021/12/26 06:38:41;;;;;;;3.30;2.33;;;;;;;-4.72;81.88;100805.88;5102075;28;20148;-68
2021/12/26 06:41:07;;;;;;;4.28;2.25;;;;;;;-4.71;82.42;100807.69;5097098;28;20040;-69
2021/12/26 06:43:34;;;;;;;3.20;2.13;;;;;;;-4.72;83.34;100811.00;5096643;28;20039;-68
2021/12/26 06:46:01;;;;;;;4.40;2.78;;;;;;;-4.75;82.47;100810.00;5103922;28;20050;-67
2021/12/26 06:48:28;;;;;;;6.40;2.88;;;;;;;-4.74;82.32;100805.75;5101731;28;20479;-69
2021/12/26 06:50:54;;;;;;;5.45;2.40;;;;;;;-4.76;82.24;100804.72;5086759;28;20031;-67
2021/12/26 06:53:20;;;;;;;4.88;2.63;;;;;;;-4.78;83.51;100804.63;5100503;28;20487;-69
2021/12/26 06:55:46;;;;;;;5.53;2.25;;;;;;;-4.76;82.98;100807.31;5100822;28;20099;-68
2021/12/26 06:58:13;;;;;;;7.30;2.45;;;;;;;-4.75;82.74;100802.31;5097230;28;20032;-68
2021/12/26 07:00:39;;;;;;;3.58;2.30;;;;;;;-4.80;82.94;100795.94;5087255;28;20019;-69
2021/12/26 07:03:04;;;;;;;4.35;2.50;;;;;;;-4.81;83.64;100793.25;5102469;28;20082;-69
2021/12/26 07:05:29;;;;;;;4.05;2.22;;;;;;;-4.82;83.75;100797.47;5105773;28;20034;-68
2021/12/26 07:07:56;;;;;;;4.47;2.40;;;;;;;-4.81;84.31;100793.25;5101246;28;20036;-68
2021/12/26 07:10:22;;;;;;;4.32;2.50;;;;;;;-4.83;83.95;100805.97;5107550;28;20035;-67
2021/12/26 07:12:49;;;;;;;4.53;2.33;;;;;;;-4.83;83.95;100793.13;5093464;28;20036;-69
2021/12/26 07:15:15;;;;;;;4.18;2.38;;;;;;;-4.83;84.65;100803.41;5109570;28;20027;-67
2021/12/26 07:17:42;;;;;;;4.68;2.20;;;;;;;-4.84;84.54;100803.25;5109430;28;20024;-68
2021/12/26 07:20:10;;;;;;;6.10;2.95;;;;;;;-4.84;83.57;100793.91;5102844;28;20020;-67
2021/12/26 07:22:35;;;;;;;2.75;2.20;;;;;;;-4.85;84.13;100797.25;5089182;28;20033;-67
2021/12/26 07:25:01;;;;;;;4.03;1.85;;;;;;;-4.85;83.71;100792.09;5088992;28;20024;-68
2021/12/26 07:27:27;;;;;;;3.38;2.40;;;;;;;-4.81;83.68;100798.38;5108281;28;20032;-67
2021/12/26 07:29:53;;;;;;;6.72;2.35;;;;;;;-4.85;82.82;100797.25;5108446;28;20073;-67
2021/12/26 07:32:18;;;;;;;4.97;2.15;;;;;;;-4.84;83.29;100796.47;5108276;28;20484;-68
2021/12/26 07:34:44;;;;;;;4.20;2.28;;;;;;;-4.83;83.13;100799.91;5101353;28;20028;-67
2021/12/26 07:37:10;;;;;;;4.13;2.13;;;;;;;-4.87;83.88;100797.88;5101009;28;20026;-67
2021/12/26 07:39:36;;;;;;;6.03;2.20;;;;;;;-4.86;83.01;100804.81;5112833;28;20032;-67
2021/12/26 07:42:02;;;;;;;4.38;2.28;;;;;;;-4.86;83.28;100799.69;5078548;28;20040;-67
2021/12/26 07:44:28;;;;;;;3.70;2.25;;;;;;;-4.85;83.00;100812.63;5100162;28;20054;-67
2021/12/26 07:46:53;;;;;;;4.28;2.33;;;;;;;-4.83;83.06;100805.97;5102878;28;20024;-67
2021/12/26 07:49:20;;;;;;;3.15;2.22;;;;;;;-4.83;83.05;100810.19;5105689;28;20020;-67
2021/12/26 07:51:48;;;;;;;3.80;2.30;;;;;;;-4.86;83.03;100810.84;5113052;28;20039;-67
2021/12/26 07:54:15;;;;;;;4.70;2.03;;;;;;;-4.82;83.59;100811.97;5107466;28;20035;-66
2021/12/26 07:56:41;;;;;;;5.63;2.22;;;;;;;-4.83;83.79;100808.53;5098455;28;20036;-67
2021/12/26 07:59:08;;;;;;;3.90;2.38;;;;;;;-4.81;84.02;100806.97;5103347;28;20115;-68
2021/12/26 08:01:33;;;;;;;5.03;2.28;;;;;;;-4.80;83.68;100808.75;5108494;28;20456;-68
2021/12/26 08:04:02;;;;;;;5.28;2.10;;;;;;;-4.81;84.42;100803.50;5113168;28;20032;-67
2021/12/26 08:06:31;;;;;;;5.45;2.00;;;;;;;-4.82;84.65;100797.47;5102480;28;20349;-69
2021/12/26 08:08:58;;;;;;;4.93;2.55;;;;;;;-4.84;84.28;100799.03;5097763;28;20055;-68
2021/12/26 08:11:24;;;;;;;6.50;3.53;;;;;;;-4.82;83.75;100802.59;5104195;28;20024;-68
2021/12/26 08:13:50;;;;;;;4.18;2.78;;;;;;;-4.79;84.50;100802.84;5101590;28;20020;-67
2021/12/26 08:16:15;;;;;;;7.43;2.80;;;;;;;-4.78;83.75;100796.91;5105302;28;20453;-67
2021/12/26 08:18:41;;;;;;;6.05;2.75;;;;;;;-4.74;84.04;100805.75;5103669;28;20055;-67
2021/12/26 08:21:08;;;;;;;5.10;2.58;;;;;;;-4.74;84.03;100809.22;5100178;28;20016;-67
2021/12/26 08:23:34;;;;;;;5.00;2.58;;;;;;;-4.70;83.86;100812.03;5095052;28;20099;-68
2021/12/26 08:26:00;;;;;;;4.03;2.50;;;;;;;-4.68;83.58;100805.34;5104263;28;20143;-67
2021/12/26 08:28:25;;;;;;;4.57;2.72;;;;;;;-4.64;84.17;100807.34;5096479;28;20105;-68
2021/12/26 08:30:51;;;;;;;4.28;2.85;;;;;;;-4.63;83.61;100802.34;5103679;28;20028;-69
2021/12/26 08:33:17;;;;;;;5.13;2.65;;;;;;;-4.60;83.49;100809.38;5101093;28;20035;-69
2021/12/26 08:35:45;;;;;;;3.60;2.05;;;;;;;-4.54;83.18;100815.00;5101131;28;20071;-67
2021/12/26 08:38:13;;;;;;;6.70;2.55;;;;;;;-4.48;83.28;100810.31;5083296;28;20486;-68
2021/12/26 08:40:38;;;;;;;5.90;3.08;;;;;;;-4.46;82.65;100808.78;5080840;28;20060;-69
2021/12/26 08:43:06;;;;;;;4.80;2.10;;;;;;;-4.41;83.32;100815.16;5108755;28;20070;-69
2021/12/26 08:45:31;;;;;;;5.25;2.72;;;;;;;-4.40;82.21;100806.66;5089193;28;20034;-68
2021/12/26 08:47:57;;;;;;;4.50;2.38;;;;;;;-4.34;82.76;100797.63;5101613;28;20035;-68
2021/12/26 08:50:25;;;;;;;4.70;2.70;;;;;;;-4.29;82.53;100804.00;5098910;28;20028;-69
2021/12/26 08:52:51;;;;;;;4.03;2.65;;;;;;;-4.24;82.46;100800.13;5108547;28;20038;-70
2021/12/26 08:55:19;;;;;;;4.03;2.60;;;;;;;-4.19;82.97;100803.94;5099954;28;20031;-68
2021/12/26 08:57:46;;;;;;;4.97;2.47;;;;;;;-4.13;82.40;100813.78;5085087;28;20028;-69
2021/12/26 09:00:13;;;;;;;4.32;2.58;;;;;;;-4.08;82.02;100813.31;5100338;28;20296;-69
2021/12/26 09:02:40;;;;;;;6.78;1.90;;;;;;;-4.00;82.30;100816.47;5108092;28;20103;-69
2021/12/26 09:05:06;;;;;;;4.95;2.67;;;;;;;-3.92;82.09;100817.94;5106222;28;20055;-69
2021/12/26 09:07:32;;;;;;;7.13;2.92;;;;;;;-3.85;81.67;100815.81;5080603;28;20020;-68
2021/12/26 09:09:58;;;;;;;4.30;2.28;;;;;;;-3.77;81.74;100810.47;5101846;28;20487;-69
2021/12/26 09:12:24;;;;;;;5.10;2.80;;;;;;;-3.70;81.43;100816.03;5102718;28;20031;-68
2021/12/26 09:14:50;;;;;;;4.72;2.35;;;;;;;-3.63;81.21;100808.00;5104993;28;20024;-69
2021/12/26 09:17:15;;;;;;;4.65;2.38;;;;;;;-3.56;81.11;100800.81;5066711;28;20525;-69
2021/12/26 09:19:41;;;;;;;3.78;2.58;;;;;;;-3.52;80.46;100801.94;5105236;28;20047;-68
2021/12/26 09:22:10;;;;;;;3.25;2.13;;;;;;;-3.47;80.25;100808.31;5088867;28;20448;-70
2021/12/26 09:24:35;;;;;;;7.85;2.95;;;;;;;-3.45;79.94;100799.03;5097572;28;20023;-68
2021/12/26 09:27:02;;;;;;;4.63;2.97;;;;;;;-3.40;79.70;100800.25;5101285;28;20563;-69
2021/12/26 09:29:27;;;;;;;3.35;2.42;;;;;;;-3.30;80.16;100803.50;5106868;28;20360;-69
2021/12/26 09:31:53;;;;;;;5.22;2.83;;;;;;;-3.27;79.87;100798.56;5100202;28;20038;-69
2021/12/26 09:34:20;;;;;;;4.40;2.58;;;;;;;-3.22;79.45;100794.63;5094821;28;20032;-69
2021/12/26 09:36:46;;;;;;;4.60;3.08;;;;;;;-3.20;79.73;100799.88;5105198;28;20023;-69
2021/12/26 09:39:18;;;;;;;4.40;2.33;;;;;;;-3.16;79.31;100802.81;5098273;28;20032;-67
2021/12/26 09:41:44;;;;;;;4.72;2.65;;;;;;;-3.11;78.58;100810.84;5104601;28;20491;-68
2021/12/26 09:44:10;;;;;;;4.88;2.72;;;;;;;-3.08;78.68;100804.25;5106780;28;20034;-68
2021/12/26 09:46:38;;;;;;;3.80;2.88;;;;;;;-3.03;79.15;100793.38;5110174;28;20080;-68
2021/12/26 09:49:04;;;;;;;4.55;2.83;;;;;;;-2.99;79.46;100801.41;5110069;28;20035;-67
2021/12/26 09:51:29;;;;;;;10.38;3.75;;;;;;;-2.96;79.90;100787.84;5102589;28;20042;-67
2021/12/26 09:53:55;;;;;;;7.47;3.13;;;;;;;-2.88;79.11;100789.28;5101591;28;20380;-67
2021/12/26 09:56:20;;;;;;;7.82;3.42;;;;;;;-2.85;79.17;100779.19;5102708;28;20464;-67
2021/12/26 09:59:05;;;;;;;12.43;3.30;;;;;;;-2.77;80.11;100779.72;5105825;28;20055;-67
2021/12/26 10:01:39;;;;;;;6.10;3.00;;;;;;;-2.63;79.28;100771.28;5106150;28;20065;-68
2021/12/26 10:04:22;;;;;;;5.40;2.63;;;;;;;-2.58;78.88;100763.84;5108065;28;20386;-68
2021/12/26 10:06:51;;;;;;;9.57;3.03;;;;;;;-2.55;79.05;100764.97;5089802;28;20475;-68
2021/12/26 10:09:21;;;;;;;5.28;3.08;;;;;;;-2.48;79.43;100761.13;5110131;28;20034;-69
2021/12/26 10:11:49;;;;;;;4.35;2.45;;;;;;;-2.41;79.48;100758.16;5107555;28;20031;-68
2021/12/26 10:14:17;;;;;;;5.90;3.05;;;;;;;-2.32;79.11;100757.88;5103849;28;20020;-68
2021/12/26 10:16:53;;;;;;;4.35;2.97;;;;;;;-2.19;78.57;100750.97;5099195;28;20028;-67
2021/12/26 10:19:18;;;;;;;5.05;3.42;;;;;;;-2.15;78.47;100760.69;5100244;28;20032;-67
2021/12/26 10:21:50;;;;;;;6.00;3.22;;;;;;;-2.09;79.30;100756.84;5105155;28;20097;-67
2021/12/26 10:24:39;;;;;;;5.47;3.20;;;;;;;-2.08;79.34;100747.41;5108338;28;20031;-66
2021/12/26 10:27:06;;;;;;;5.15;3.13;;;;;;;-2.01;79.51;100746.13;5109251;28;20038;-69
2021/12/26 10:29:34;;;;;;;5.30;3.10;;;;;;;-1.95;79.60;100744.84;5102237;28;20475;-66
2021/12/26 10:32:09;;;;;;;5.75;3.05;;;;;;;-1.90;79.44;100737.38;5099685;28;20502;-67
2021/12/26 10:34:35;;;;;;;6.38;3.30;;;;;;;-1.86;79.57;100744.53;5097799;28;20032;-66
2021/12/26 10:37:05;;;;;;;6.20;3.47;;;;;;;-1.83;79.91;100737.00;5097450;28;20113;-68
2021/12/26 10:39:34;;;;;;;6.80;3.00;;;;;;;-1.81;80.14;100727.66;5085621;28;20038;-66
2021/12/26 10:42:03;;;;;;;8.23;3.60;;;;;;;-1.76;80.98;100731.44;5113295;28;20023;-67
2021/12/26 10:44:41;;;;;;;5.10;3.38;;;;;;;-1.71;80.84;100724.91;5104662;28;20019;-66
2021/12/26 10:47:16;;;;;;;7.57;3.95;;;;;;;-1.70;80.79;100718.03;5105949;28;20032;-67
2021/12/26 10:49:57;;;;;;;6.43;3.67;;;;;;;-1.61;81.75;100710.88;5086465;28;20016;-68
2021/12/26 10:52:29;;;;;;;7.63;4.35;;;;;;;-1.50;81.18;100714.16;5097086;28;20081;-68
2021/12/26 10:55:14;;;;;;;6.85;4.15;;;;;;;-1.51;81.07;100719.22;5103316;28;20122;-69
2021/12/26 10:57:42;;;;;;;6.40;3.50;;;;;;;-1.43;81.02;100721.47;5101531;28;20551;-68
2021/12/26 11:00:20;;;;;;;5.97;3.45;;;;;;;-1.39;80.91;100720.84;5100327;28;20030;-69
2021/12/26 11:03:00;;;;;;;6.80;3.67;;;;;;;-1.33;81.13;100724.63;5099688;28;20124;-69
2021/12/26 11:05:35;;;;;;;8.60;4.30;;;;;;;-1.30;81.21;100719.66;5104624;28;20156;-70
2021/12/26 11:08:03;;;;;;;5.72;3.53;;;;;;;-1.26;80.79;100713.88;5080762;28;20046;-69
2021/12/26 11:10:40;;;;;;;8.77;3.97;;;;;;;-1.20;81.40;100714.28;5100269;28;20076;-69
2021/12/26 11:13:15;;;;;;;6.47;4.15;;;;;;;-1.15;81.31;100711.97;5110555;28;20043;-69
2021/12/26 11:15:41;;;;;;;7.05;4.25;;;;;;;-1.12;81.75;100713.03;5103012;28;20108;-70
2021/12/26 11:18:10;;;;;;;7.88;4.32;;;;;;;-1.06;81.56;100707.38;5107391;28;20111;-69
2021/12/26 11:20:45;;;;;;;7.63;4.20;;;;;;;-1.04;82.22;100710.94;5104211;28;20036;-67
2021/12/26 11:23:16;;;;;;;7.85;4.00;;;;;;;-0.92;81.72;100700.47;5105467;28;20198;-69
2021/12/26 11:26:04;;;;;;;5.95;3.63;;;;;;;-0.94;81.43;100702.94;5103375;28;20523;-68
2021/12/26 11:28:33;;;;;;;7.32;4.28;;;;;;;-0.95;81.50;100703.75;5103272;28;20035;-68
2021/12/26 11:31:03;;;;;;;7.35;4.35;;;;;;;-0.90;81.94;100698.84;5084631;28;20061;-68